sensor_id;sensor_type;location;lat;lon;timestamp;P1;durP1;ratioP1;P2;durP2;ratioP2
77870;SDS011;67067;46.850;7.578;2024-03-17T00:00:32;8.27;;;2.00;;
77870;SDS011;67067;46.850;7.578;2024-03-17T00:01:33;5.93;;;2.10;;
77870;SDS011;67067;46.850;7.578;2024-03-17T00:02:34;6.57;;;1.90;;
77870;SDS011;67067;46.850;7.578;2024-03-17T00:03:35;7.10;;;2.60;;
77870;SDS011;67067;46.850;7.578;2024-03-17T00:04:36;6.85;;;2.35;;
77870;SDS011;67067;46.850;7.578;2024-03-17T00:05:37;5.82;;;2.10;;
77870;SDS011;67067;46.850;7.578;2024-03-17T00:06:38;7.47;;;2.60;;
77870;SDS011;67067;46.850;7.578;2024-03-17T00:07:39;6.17;;;2.10;;
77870;SDS011;67067;46.850;7.578;2024-03-17T00:08:40;6.55;;;2.30;;
77870;SDS011;67067;46.850;7.578;2024-03-17T00:09:43;4.85;;;1.73;;
77870;SDS011;67067;46.850;7.578;2024-03-17T00:10:49;4.07;;;1.85;;
77870;SDS011;67067;46.850;7.578;2024-03-17T00:11:50;3.15;;;1.98;;
77870;SDS011;67067;46.850;7.578;2024-03-17T00:12:51;3.10;;;1.90;;
77870;SDS011;67067;46.850;7.578;2024-03-17T00:13:52;2.95;;;1.92;;
77870;SDS011;67067;46.850;7.578;2024-03-17T00:14:55;4.10;;;1.95;;
77870;SDS011;67067;46.850;7.578;2024-03-17T00:15:59;4.53;;;1.90;;
77870;SDS011;67067;46.850;7.578;2024-03-17T00:17:00;3.67;;;1.90;;
77870;SDS011;67067;46.850;7.578;2024-03-17T00:19:04;2.78;;;1.85;;
77870;SDS011;67067;46.850;7.578;2024-03-17T00:20:06;7.75;;;2.40;;
77870;SDS011;67067;46.850;7.578;2024-03-17T00:21:19;2.20;;;1.60;;
77870;SDS011;67067;46.850;7.578;2024-03-17T00:22:22;7.13;;;2.20;;
77870;SDS011;67067;46.850;7.578;2024-03-17T00:23:23;3.43;;;2.13;;
77870;SDS011;67067;46.850;7.578;2024-03-17T00:24:23;3.77;;;2.10;;
77870;SDS011;67067;46.850;7.578;2024-03-17T00:25:24;4.00;;;2.20;;
77870;SDS011;67067;46.850;7.578;2024-03-17T00:26:25;5.20;;;2.22;;
77870;SDS011;67067;46.850;7.578;2024-03-17T00:27:27;4.93;;;2.50;;
77870;SDS011;67067;46.850;7.578;2024-03-17T00:28:27;2.97;;;2.37;;
77870;SDS011;67067;46.850;7.578;2024-03-17T00:29:28;3.13;;;2.00;;
77870;SDS011;67067;46.850;7.578;2024-03-17T00:30:29;4.35;;;2.30;;
77870;SDS011;67067;46.850;7.578;2024-03-17T00:31:31;9.48;;;3.45;;
77870;SDS011;67067;46.850;7.578;2024-03-17T00:32:34;32.08;;;13.88;;
77870;SDS011;67067;46.850;7.578;2024-03-17T00:33:35;39.10;;;17.33;;
77870;SDS011;67067;46.850;7.578;2024-03-17T00:34:37;36.55;;;15.52;;
77870;SDS011;67067;46.850;7.578;2024-03-17T00:35:40;20.42;;;7.35;;
77870;SDS011;67067;46.850;7.578;2024-03-17T00:36:43;12.65;;;4.97;;
77870;SDS011;67067;46.850;7.578;2024-03-17T00:37:44;8.53;;;3.63;;
77870;SDS011;67067;46.850;7.578;2024-03-17T00:38:44;8.48;;;3.28;;
77870;SDS011;67067;46.850;7.578;2024-03-17T00:39:46;6.72;;;2.40;;
77870;SDS011;67067;46.850;7.578;2024-03-17T00:40:46;9.47;;;4.07;;
77870;SDS011;67067;46.850;7.578;2024-03-17T00:41:49;4.40;;;2.42;;
77870;SDS011;67067;46.850;7.578;2024-03-17T00:42:52;6.60;;;2.73;;
77870;SDS011;67067;46.850;7.578;2024-03-17T00:43:54;3.80;;;2.28;;
77870;SDS011;67067;46.850;7.578;2024-03-17T00:44:55;4.50;;;2.50;;
77870;SDS011;67067;46.850;7.578;2024-03-17T00:45:56;3.17;;;2.20;;
77870;SDS011;67067;46.850;7.578;2024-03-17T00:47:59;5.22;;;2.58;;
77870;SDS011;67067;46.850;7.578;2024-03-17T00:48:59;3.77;;;2.20;;
77870;SDS011;67067;46.850;7.578;2024-03-17T00:50:00;3.47;;;2.10;;
77870;SDS011;67067;46.850;7.578;2024-03-17T00:51:04;2.78;;;2.00;;
77870;SDS011;67067;46.850;7.578;2024-03-17T00:52:05;6.43;;;2.30;;
77870;SDS011;67067;46.850;7.578;2024-03-17T00:53:06;3.58;;;1.95;;
77870;SDS011;67067;46.850;7.578;2024-03-17T00:54:09;5.03;;;2.15;;
77870;SDS011;67067;46.850;7.578;2024-03-17T00:55:10;1.95;;;1.75;;
77870;SDS011;67067;46.850;7.578;2024-03-17T00:56:11;6.67;;;2.40;;
77870;SDS011;67067;46.850;7.578;2024-03-17T00:57:12;3.37;;;2.23;;
77870;SDS011;67067;46.850;7.578;2024-03-17T00:58:12;4.60;;;2.07;;
77870;SDS011;67067;46.850;7.578;2024-03-17T00:59:15;6.28;;;2.47;;
77870;SDS011;67067;46.850;7.578;2024-03-17T01:00:16;3.47;;;2.03;;
77870;SDS011;67067;46.850;7.578;2024-03-17T01:02:19;4.50;;;2.03;;
77870;SDS011;67067;46.850;7.578;2024-03-17T01:03:22;3.90;;;2.15;;
77870;SDS011;67067;46.850;7.578;2024-03-17T01:04:22;3.83;;;2.13;;
77870;SDS011;67067;46.850;7.578;2024-03-17T01:05:26;5.70;;;2.40;;
77870;SDS011;67067;46.850;7.578;2024-03-17T01:06:26;3.53;;;2.00;;
77870;SDS011;67067;46.850;7.578;2024-03-17T01:07:29;4.17;;;1.80;;
77870;SDS011;67067;46.850;7.578;2024-03-17T01:08:30;3.05;;;1.85;;
77870;SDS011;67067;46.850;7.578;2024-03-17T01:09:31;4.28;;;2.28;;
77870;SDS011;67067;46.850;7.578;2024-03-17T01:10:43;4.28;;;2.15;;
77870;SDS011;67067;46.850;7.578;2024-03-17T01:11:45;3.33;;;1.95;;
77870;SDS011;67067;46.850;7.578;2024-03-17T01:12:46;5.60;;;2.13;;
77870;SDS011;67067;46.850;7.578;2024-03-17T01:13:46;4.30;;;1.77;;
77870;SDS011;67067;46.850;7.578;2024-03-17T01:14:47;2.93;;;2.23;;
77870;SDS011;67067;46.850;7.578;2024-03-17T01:15:51;4.23;;;2.07;;
77870;SDS011;67067;46.850;7.578;2024-03-17T01:16:52;2.25;;;1.88;;
77870;SDS011;67067;46.850;7.578;2024-03-17T01:17:53;2.80;;;1.80;;
77870;SDS011;67067;46.850;7.578;2024-03-17T01:18:55;2.42;;;1.52;;
77870;SDS011;67067;46.850;7.578;2024-03-17T01:19:55;5.40;;;2.00;;
77870;SDS011;67067;46.850;7.578;2024-03-17T01:20:56;5.00;;;1.87;;
77870;SDS011;67067;46.850;7.578;2024-03-17T01:21:57;3.95;;;1.85;;
77870;SDS011;67067;46.850;7.578;2024-03-17T01:23:05;4.90;;;2.17;;
77870;SDS011;67067;46.850;7.578;2024-03-17T01:24:06;4.40;;;2.03;;
77870;SDS011;67067;46.850;7.578;2024-03-17T01:25:07;2.78;;;1.88;;
77870;SDS011;67067;46.850;7.578;2024-03-17T01:27:09;6.85;;;1.63;;
77870;SDS011;67067;46.850;7.578;2024-03-17T01:28:14;5.10;;;2.40;;
77870;SDS011;67067;46.850;7.578;2024-03-17T01:29:16;9.70;;;3.60;;
77870;SDS011;67067;46.850;7.578;2024-03-17T01:30:16;12.13;;;4.40;;
77870;SDS011;67067;46.850;7.578;2024-03-17T01:31:17;3.08;;;2.45;;
77870;SDS011;67067;46.850;7.578;2024-03-17T01:32:18;7.53;;;2.20;;
77870;SDS011;67067;46.850;7.578;2024-03-17T01:33:21;5.68;;;1.95;;
77870;SDS011;67067;46.850;7.578;2024-03-17T01:34:22;6.57;;;2.15;;
77870;SDS011;67067;46.850;7.578;2024-03-17T01:35:25;5.55;;;2.45;;
77870;SDS011;67067;46.850;7.578;2024-03-17T01:36:26;3.17;;;1.90;;
77870;SDS011;67067;46.850;7.578;2024-03-17T01:37:27;2.03;;;1.57;;
77870;SDS011;67067;46.850;7.578;2024-03-17T01:38:32;6.53;;;2.25;;
77870;SDS011;67067;46.850;7.578;2024-03-17T01:39:36;6.03;;;2.00;;
77870;SDS011;67067;46.850;7.578;2024-03-17T01:40:39;4.30;;;2.10;;
77870;SDS011;67067;46.850;7.578;2024-03-17T01:41:40;4.25;;;2.22;;
77870;SDS011;67067;46.850;7.578;2024-03-17T01:43:42;3.88;;;1.73;;
77870;SDS011;67067;46.850;7.578;2024-03-17T01:44:44;9.48;;;1.95;;
77870;SDS011;67067;46.850;7.578;2024-03-17T01:45:45;3.83;;;2.05;;
77870;SDS011;67067;46.850;7.578;2024-03-17T01:46:46;5.47;;;1.67;;
77870;SDS011;67067;46.850;7.578;2024-03-17T01:47:49;5.47;;;2.33;;
77870;SDS011;67067;46.850;7.578;2024-03-17T01:48:50;3.75;;;1.98;;
77870;SDS011;67067;46.850;7.578;2024-03-17T01:49:51;8.00;;;2.22;;
77870;SDS011;67067;46.850;7.578;2024-03-17T01:50:53;5.03;;;2.20;;
77870;SDS011;67067;46.850;7.578;2024-03-17T01:51:57;4.93;;;2.30;;
77870;SDS011;67067;46.850;7.578;2024-03-17T01:52:58;5.90;;;2.53;;
77870;SDS011;67067;46.850;7.578;2024-03-17T01:54:01;4.10;;;1.90;;
77870;SDS011;67067;46.850;7.578;2024-03-17T01:55:04;5.50;;;2.42;;
77870;SDS011;67067;46.850;7.578;2024-03-17T01:56:05;2.20;;;1.88;;
77870;SDS011;67067;46.850;7.578;2024-03-17T01:57:10;6.18;;;2.20;;
77870;SDS011;67067;46.850;7.578;2024-03-17T01:58:11;3.72;;;2.38;;
77870;SDS011;67067;46.850;7.578;2024-03-17T01:59:12;2.58;;;2.15;;
77870;SDS011;67067;46.850;7.578;2024-03-17T02:12:33;8.20;;;2.40;;
77870;SDS011;67067;46.850;7.578;2024-03-17T02:13:35;6.55;;;2.25;;
77870;SDS011;67067;46.850;7.578;2024-03-17T02:14:36;7.00;;;1.90;;
77870;SDS011;67067;46.850;7.578;2024-03-17T02:15:36;2.67;;;2.20;;
77870;SDS011;67067;46.850;7.578;2024-03-17T02:16:37;10.55;;;4.60;;
77870;SDS011;67067;46.850;7.578;2024-03-17T02:17:40;8.20;;;2.77;;
77870;SDS011;67067;46.850;7.578;2024-03-17T02:18:41;5.30;;;2.63;;
77870;SDS011;67067;46.850;7.578;2024-03-17T02:19:42;5.77;;;2.70;;
77870;SDS011;67067;46.850;7.578;2024-03-17T02:20:45;5.47;;;2.20;;
77870;SDS011;67067;46.850;7.578;2024-03-17T02:22:01;5.32;;;2.30;;
77870;SDS011;67067;46.850;7.578;2024-03-17T02:23:02;5.87;;;2.30;;
77870;SDS011;67067;46.850;7.578;2024-03-17T02:24:03;3.87;;;2.40;;
77870;SDS011;67067;46.850;7.578;2024-03-17T02:25:04;2.95;;;2.22;;
77870;SDS011;67067;46.850;7.578;2024-03-17T02:26:08;4.15;;;2.00;;
77870;SDS011;67067;46.850;7.578;2024-03-17T02:27:09;3.80;;;2.00;;
77870;SDS011;67067;46.850;7.578;2024-03-17T02:28:10;8.70;;;2.30;;
77870;SDS011;67067;46.850;7.578;2024-03-17T02:29:14;3.78;;;1.52;;
77870;SDS011;67067;46.850;7.578;2024-03-17T02:30:15;5.67;;;1.93;;
77870;SDS011;67067;46.850;7.578;2024-03-17T02:31:16;5.57;;;1.83;;
77870;SDS011;67067;46.850;7.578;2024-03-17T02:32:17;3.05;;;2.00;;
77870;SDS011;67067;46.850;7.578;2024-03-17T02:33:18;4.97;;;2.13;;
77870;SDS011;67067;46.850;7.578;2024-03-17T02:34:20;8.20;;;2.28;;
77870;SDS011;67067;46.850;7.578;2024-03-17T02:35:23;4.20;;;1.85;;
77870;SDS011;67067;46.850;7.578;2024-03-17T02:36:25;5.03;;;1.95;;
77870;SDS011;67067;46.850;7.578;2024-03-17T02:37:25;4.27;;;1.87;;
77870;SDS011;67067;46.850;7.578;2024-03-17T02:38:27;5.18;;;2.13;;
77870;SDS011;67067;46.850;7.578;2024-03-17T02:39:46;3.30;;;1.60;;
77870;SDS011;67067;46.850;7.578;2024-03-17T02:40:49;4.85;;;1.75;;
77870;SDS011;67067;46.850;7.578;2024-03-17T02:41:50;8.63;;;2.00;;
77870;SDS011;67067;46.850;7.578;2024-03-17T02:42:51;2.67;;;2.03;;
77870;SDS011;67067;46.850;7.578;2024-03-17T02:43:54;3.80;;;2.13;;
77870;SDS011;67067;46.850;7.578;2024-03-17T02:44:55;3.78;;;2.10;;
77870;SDS011;67067;46.850;7.578;2024-03-17T02:45:56;2.73;;;1.90;;
77870;SDS011;67067;46.850;7.578;2024-03-17T02:48:01;1.85;;;1.75;;
77870;SDS011;67067;46.850;7.578;2024-03-17T02:49:02;4.27;;;1.77;;
77870;SDS011;67067;46.850;7.578;2024-03-17T02:50:02;3.80;;;1.97;;
77870;SDS011;67067;46.850;7.578;2024-03-17T02:51:04;4.60;;;1.92;;
77870;SDS011;67067;46.850;7.578;2024-03-17T02:52:06;3.63;;;1.90;;
77870;SDS011;67067;46.850;7.578;2024-03-17T02:53:09;5.30;;;2.10;;
77870;SDS011;67067;46.850;7.578;2024-03-17T02:54:13;3.70;;;1.80;;
77870;SDS011;67067;46.850;7.578;2024-03-17T02:55:14;2.50;;;1.63;;
77870;SDS011;67067;46.850;7.578;2024-03-17T02:56:15;2.25;;;1.80;;
77870;SDS011;67067;46.850;7.578;2024-03-17T02:57:19;3.13;;;1.80;;
77870;SDS011;67067;46.850;7.578;2024-03-17T02:58:21;5.55;;;1.95;;
77870;SDS011;67067;46.850;7.578;2024-03-17T02:59:22;2.77;;;1.80;;
77870;SDS011;67067;46.850;7.578;2024-03-17T03:00:25;4.45;;;2.35;;
77870;SDS011;67067;46.850;7.578;2024-03-17T03:01:26;2.05;;;1.75;;
77870;SDS011;67067;46.850;7.578;2024-03-17T03:02:27;2.00;;;1.60;;
77870;SDS011;67067;46.850;7.578;2024-03-17T03:03:28;3.10;;;2.03;;
77870;SDS011;67067;46.850;7.578;2024-03-17T03:04:28;5.53;;;2.13;;
77870;SDS011;67067;46.850;7.578;2024-03-17T03:05:30;5.32;;;2.20;;
77870;SDS011;67067;46.850;7.578;2024-03-17T03:06:32;5.18;;;2.22;;
77870;SDS011;67067;46.850;7.578;2024-03-17T03:07:33;5.82;;;1.77;;
77870;SDS011;67067;46.850;7.578;2024-03-17T03:08:37;2.83;;;1.90;;
77870;SDS011;67067;46.850;7.578;2024-03-17T03:09:40;1.70;;;1.60;;
77870;SDS011;67067;46.850;7.578;2024-03-17T03:10:43;2.78;;;1.92;;
77870;SDS011;67067;46.850;7.578;2024-03-17T03:11:45;3.42;;;1.73;;
77870;SDS011;67067;46.850;7.578;2024-03-17T03:12:48;6.50;;;2.25;;
77870;SDS011;67067;46.850;7.578;2024-03-17T03:13:51;7.30;;;2.17;;
77870;SDS011;67067;46.850;7.578;2024-03-17T03:14:51;2.15;;;1.95;;
77870;SDS011;67067;46.850;7.578;2024-03-17T03:15:53;3.25;;;1.65;;
77870;SDS011;67067;46.850;7.578;2024-03-17T03:16:54;3.00;;;1.83;;
77870;SDS011;67067;46.850;7.578;2024-03-17T03:17:54;2.20;;;2.00;;
77870;SDS011;67067;46.850;7.578;2024-03-17T03:18:55;6.13;;;1.83;;
77870;SDS011;67067;46.850;7.578;2024-03-17T03:19:56;5.67;;;1.87;;
77870;SDS011;67067;46.850;7.578;2024-03-17T03:20:57;5.80;;;1.77;;
77870;SDS011;67067;46.850;7.578;2024-03-17T03:22:00;4.38;;;1.90;;
77870;SDS011;67067;46.850;7.578;2024-03-17T03:23:01;2.83;;;1.70;;
77870;SDS011;67067;46.850;7.578;2024-03-17T03:24:02;6.35;;;1.88;;
77870;SDS011;67067;46.850;7.578;2024-03-17T03:25:03;3.43;;;1.60;;
77870;SDS011;67067;46.850;7.578;2024-03-17T03:26:04;1.90;;;1.70;;
77870;SDS011;67067;46.850;7.578;2024-03-17T03:27:05;3.53;;;2.15;;
77870;SDS011;67067;46.850;7.578;2024-03-17T03:28:06;2.47;;;1.90;;
77870;SDS011;67067;46.850;7.578;2024-03-17T03:29:07;2.87;;;1.57;;
77870;SDS011;67067;46.850;7.578;2024-03-17T03:30:08;2.85;;;2.22;;
77870;SDS011;67067;46.850;7.578;2024-03-17T03:31:12;3.08;;;1.90;;
77870;SDS011;67067;46.850;7.578;2024-03-17T03:32:16;6.10;;;1.90;;
77870;SDS011;67067;46.850;7.578;2024-03-17T03:33:18;4.75;;;1.95;;
77870;SDS011;67067;46.850;7.578;2024-03-17T03:34:19;2.55;;;2.00;;
77870;SDS011;67067;46.850;7.578;2024-03-17T03:35:20;3.83;;;2.10;;
77870;SDS011;67067;46.850;7.578;2024-03-17T03:36:21;4.13;;;2.10;;
77870;SDS011;67067;46.850;7.578;2024-03-17T03:37:22;2.60;;;1.70;;
77870;SDS011;67067;46.850;7.578;2024-03-17T03:38:25;2.83;;;1.60;;
77870;SDS011;67067;46.850;7.578;2024-03-17T03:39:26;4.00;;;1.95;;
77870;SDS011;67067;46.850;7.578;2024-03-17T03:40:32;9.23;;;2.47;;
77870;SDS011;67067;46.850;7.578;2024-03-17T03:41:33;2.67;;;1.88;;
77870;SDS011;67067;46.850;7.578;2024-03-17T03:42:34;3.77;;;2.50;;
77870;SDS011;67067;46.850;7.578;2024-03-17T03:43:35;6.07;;;1.83;;
77870;SDS011;67067;46.850;7.578;2024-03-17T03:44:36;4.63;;;2.15;;
77870;SDS011;67067;46.850;7.578;2024-03-17T03:45:36;4.40;;;2.17;;
77870;SDS011;67067;46.850;7.578;2024-03-17T03:46:38;5.63;;;1.83;;
77870;SDS011;67067;46.850;7.578;2024-03-17T03:47:39;5.33;;;2.20;;
77870;SDS011;67067;46.850;7.578;2024-03-17T03:49:41;2.58;;;1.60;;
77870;SDS011;67067;46.850;7.578;2024-03-17T03:50:42;5.47;;;2.15;;
77870;SDS011;67067;46.850;7.578;2024-03-17T03:51:44;3.15;;;2.15;;
77870;SDS011;67067;46.850;7.578;2024-03-17T03:52:45;5.35;;;2.38;;
77870;SDS011;67067;46.850;7.578;2024-03-17T03:53:45;4.70;;;2.43;;
77870;SDS011;67067;46.850;7.578;2024-03-17T03:54:46;4.47;;;1.80;;
77870;SDS011;67067;46.850;7.578;2024-03-17T03:55:48;2.55;;;1.73;;
77870;SDS011;67067;46.850;7.578;2024-03-17T03:56:51;3.40;;;1.88;;
77870;SDS011;67067;46.850;7.578;2024-03-17T03:57:52;4.37;;;2.23;;
77870;SDS011;67067;46.850;7.578;2024-03-17T03:58:53;3.55;;;2.40;;
77870;SDS011;67067;46.850;7.578;2024-03-17T03:59:54;3.80;;;2.28;;
77870;SDS011;67067;46.850;7.578;2024-03-17T04:01:59;4.30;;;2.10;;
77870;SDS011;67067;46.850;7.578;2024-03-17T04:03:00;4.10;;;2.10;;
77870;SDS011;67067;46.850;7.578;2024-03-17T04:04:06;4.53;;;2.30;;
77870;SDS011;67067;46.850;7.578;2024-03-17T04:05:08;5.45;;;2.20;;
77870;SDS011;67067;46.850;7.578;2024-03-17T04:06:10;1.90;;;1.42;;
77870;SDS011;67067;46.850;7.578;2024-03-17T04:07:13;2.60;;;1.73;;
77870;SDS011;67067;46.850;7.578;2024-03-17T04:08:14;3.37;;;1.90;;
77870;SDS011;67067;46.850;7.578;2024-03-17T04:09:15;2.55;;;1.95;;
77870;SDS011;67067;46.850;7.578;2024-03-17T04:10:16;4.30;;;1.90;;
77870;SDS011;67067;46.850;7.578;2024-03-17T04:11:21;2.45;;;1.75;;
77870;SDS011;67067;46.850;7.578;2024-03-17T04:12:22;4.20;;;2.00;;
77870;SDS011;67067;46.850;7.578;2024-03-17T04:13:24;2.13;;;1.90;;
77870;SDS011;67067;46.850;7.578;2024-03-17T04:14:25;4.20;;;1.87;;
77870;SDS011;67067;46.850;7.578;2024-03-17T04:15:26;2.67;;;1.73;;
77870;SDS011;67067;46.850;7.578;2024-03-17T04:16:27;6.72;;;2.20;;
77870;SDS011;67067;46.850;7.578;2024-03-17T04:17:29;5.00;;;1.85;;
77870;SDS011;67067;46.850;7.578;2024-03-17T04:18:29;8.10;;;2.43;;
77870;SDS011;67067;46.850;7.578;2024-03-17T04:19:30;4.05;;;1.60;;
77870;SDS011;67067;46.850;7.578;2024-03-17T04:20:31;2.80;;;1.53;;
77870;SDS011;67067;46.850;7.578;2024-03-17T04:21:32;1.83;;;1.53;;
77870;SDS011;67067;46.850;7.578;2024-03-17T04:22:33;6.07;;;1.80;;
77870;SDS011;67067;46.850;7.578;2024-03-17T04:23:36;5.38;;;2.30;;
77870;SDS011;67067;46.850;7.578;2024-03-17T04:24:37;2.70;;;1.85;;
77870;SDS011;67067;46.850;7.578;2024-03-17T04:25:41;4.93;;;1.98;;
77870;SDS011;67067;46.850;7.578;2024-03-17T04:26:43;2.55;;;1.67;;
77870;SDS011;67067;46.850;7.578;2024-03-17T04:27:44;5.00;;;2.20;;
77870;SDS011;67067;46.850;7.578;2024-03-17T04:28:45;3.77;;;1.80;;
77870;SDS011;67067;46.850;7.578;2024-03-17T04:29:46;2.73;;;2.00;;
77870;SDS011;67067;46.850;7.578;2024-03-17T04:30:50;2.88;;;1.92;;
77870;SDS011;67067;46.850;7.578;2024-03-17T04:31:51;5.00;;;1.77;;
77870;SDS011;67067;46.850;7.578;2024-03-17T04:32:54;3.67;;;1.90;;
77870;SDS011;67067;46.850;7.578;2024-03-17T04:33:55;4.60;;;1.77;;
77870;SDS011;67067;46.850;7.578;2024-03-17T04:34:56;6.78;;;1.92;;
77870;SDS011;67067;46.850;7.578;2024-03-17T04:35:57;3.27;;;1.70;;
77870;SDS011;67067;46.850;7.578;2024-03-17T04:36:58;2.70;;;1.73;;
77870;SDS011;67067;46.850;7.578;2024-03-17T04:37:59;3.63;;;1.90;;
77870;SDS011;67067;46.850;7.578;2024-03-17T04:39:00;1.40;;;1.30;;
77870;SDS011;67067;46.850;7.578;2024-03-17T04:40:01;6.10;;;1.73;;
77870;SDS011;67067;46.850;7.578;2024-03-17T04:41:05;2.15;;;1.52;;
77870;SDS011;67067;46.850;7.578;2024-03-17T04:42:07;6.47;;;2.10;;
77870;SDS011;67067;46.850;7.578;2024-03-17T04:43:09;2.08;;;1.40;;
77870;SDS011;67067;46.850;7.578;2024-03-17T04:44:09;5.15;;;1.90;;
77870;SDS011;67067;46.850;7.578;2024-03-17T04:45:10;5.10;;;1.55;;
77870;SDS011;67067;46.850;7.578;2024-03-17T04:46:11;5.20;;;2.20;;
77870;SDS011;67067;46.850;7.578;2024-03-17T04:47:14;3.08;;;1.90;;
77870;SDS011;67067;46.850;7.578;2024-03-17T04:48:14;3.97;;;1.95;;
77870;SDS011;67067;46.850;7.578;2024-03-17T04:49:15;8.33;;;2.47;;
77870;SDS011;67067;46.850;7.578;2024-03-17T04:50:16;1.80;;;1.50;;
77870;SDS011;67067;46.850;7.578;2024-03-17T04:51:17;2.55;;;1.67;;
77870;SDS011;67067;46.850;7.578;2024-03-17T04:52:18;5.10;;;1.83;;
77870;SDS011;67067;46.850;7.578;2024-03-17T04:53:19;4.67;;;1.90;;
77870;SDS011;67067;46.850;7.578;2024-03-17T04:55:21;6.80;;;2.00;;
77870;SDS011;67067;46.850;7.578;2024-03-17T04:56:22;10.95;;;1.90;;
77870;SDS011;67067;46.850;7.578;2024-03-17T04:57:23;10.73;;;2.20;;
77870;SDS011;67067;46.850;7.578;2024-03-17T04:58:25;5.20;;;2.10;;
77870;SDS011;67067;46.850;7.578;2024-03-17T04:59:25;4.27;;;2.17;;
77870;SDS011;67067;46.850;7.578;2024-03-17T05:02:14;4.40;;;1.73;;
77870;SDS011;67067;46.850;7.578;2024-03-17T05:03:15;3.17;;;1.80;;
77870;SDS011;67067;46.850;7.578;2024-03-17T05:04:19;3.75;;;1.98;;
77870;SDS011;67067;46.850;7.578;2024-03-17T05:05:20;2.25;;;1.83;;
77870;SDS011;67067;46.850;7.578;2024-03-17T05:06:21;2.45;;;1.92;;
77870;SDS011;67067;46.850;7.578;2024-03-17T05:07:22;3.67;;;2.00;;
77870;SDS011;67067;46.850;7.578;2024-03-17T05:08:23;4.25;;;1.95;;
77870;SDS011;67067;46.850;7.578;2024-03-17T05:09:24;2.97;;;1.50;;
77870;SDS011;67067;46.850;7.578;2024-03-17T05:10:25;1.97;;;1.70;;
77870;SDS011;67067;46.850;7.578;2024-03-17T05:11:25;5.23;;;1.73;;
77870;SDS011;67067;46.850;7.578;2024-03-17T05:12:27;2.83;;;1.77;;
77870;SDS011;67067;46.850;7.578;2024-03-17T05:13:28;2.85;;;2.22;;
77870;SDS011;67067;46.850;7.578;2024-03-17T05:14:29;7.68;;;2.63;;
77870;SDS011;67067;46.850;7.578;2024-03-17T05:15:30;5.27;;;2.20;;
77870;SDS011;67067;46.850;7.578;2024-03-17T05:16:30;3.83;;;2.33;;
77870;SDS011;67067;46.850;7.578;2024-03-17T05:17:31;6.63;;;2.13;;
77870;SDS011;67067;46.850;7.578;2024-03-17T05:18:32;6.75;;;2.00;;
77870;SDS011;67067;46.850;7.578;2024-03-17T05:19:33;4.80;;;2.13;;
77870;SDS011;67067;46.850;7.578;2024-03-17T05:20:34;2.43;;;1.80;;
77870;SDS011;67067;46.850;7.578;2024-03-17T05:21:35;2.83;;;1.80;;
77870;SDS011;67067;46.850;7.578;2024-03-17T05:22:36;2.22;;;1.70;;
77870;SDS011;67067;46.850;7.578;2024-03-17T05:23:39;3.00;;;2.03;;
77870;SDS011;67067;46.850;7.578;2024-03-17T05:24:43;5.60;;;2.00;;
77870;SDS011;67067;46.850;7.578;2024-03-17T05:25:50;3.35;;;1.70;;
77870;SDS011;67067;46.850;7.578;2024-03-17T05:26:55;2.92;;;2.00;;
77870;SDS011;67067;46.850;7.578;2024-03-17T05:27:56;5.85;;;1.98;;
77870;SDS011;67067;46.850;7.578;2024-03-17T05:28:57;6.93;;;1.92;;
77870;SDS011;67067;46.850;7.578;2024-03-17T05:29:57;4.32;;;2.28;;
77870;SDS011;67067;46.850;7.578;2024-03-17T05:31:00;5.00;;;2.20;;
77870;SDS011;67067;46.850;7.578;2024-03-17T05:32:04;3.17;;;2.05;;
77870;SDS011;67067;46.850;7.578;2024-03-17T05:33:05;3.30;;;1.73;;
77870;SDS011;67067;46.850;7.578;2024-03-17T05:34:06;1.83;;;1.60;;
77870;SDS011;67067;46.850;7.578;2024-03-17T05:35:08;5.05;;;1.98;;
77870;SDS011;67067;46.850;7.578;2024-03-17T05:36:10;4.65;;;2.28;;
77870;SDS011;67067;46.850;7.578;2024-03-17T05:37:11;3.00;;;1.80;;
77870;SDS011;67067;46.850;7.578;2024-03-17T05:38:11;3.63;;;1.83;;
77870;SDS011;67067;46.850;7.578;2024-03-17T05:39:13;3.95;;;2.30;;
77870;SDS011;67067;46.850;7.578;2024-03-17T05:40:15;1.80;;;1.70;;
77870;SDS011;67067;46.850;7.578;2024-03-17T05:41:15;4.37;;;1.77;;
77870;SDS011;67067;46.850;7.578;2024-03-17T05:42:16;5.50;;;2.30;;
77870;SDS011;67067;46.850;7.578;2024-03-17T05:43:17;4.03;;;2.53;;
77870;SDS011;67067;46.850;7.578;2024-03-17T05:44:20;3.33;;;2.42;;
77870;SDS011;67067;46.850;7.578;2024-03-17T05:45:24;3.35;;;2.03;;
77870;SDS011;67067;46.850;7.578;2024-03-17T05:46:25;6.07;;;2.37;;
77870;SDS011;67067;46.850;7.578;2024-03-17T05:47:27;4.70;;;2.50;;
77870;SDS011;67067;46.850;7.578;2024-03-17T05:48:33;3.35;;;2.05;;
77870;SDS011;67067;46.850;7.578;2024-03-17T05:49:43;3.13;;;2.17;;
77870;SDS011;67067;46.850;7.578;2024-03-17T05:50:44;3.85;;;1.80;;
77870;SDS011;67067;46.850;7.578;2024-03-17T05:51:45;5.85;;;2.20;;
77870;SDS011;67067;46.850;7.578;2024-03-17T05:52:45;3.33;;;1.87;;
77870;SDS011;67067;46.850;7.578;2024-03-17T05:53:46;5.13;;;2.07;;
77870;SDS011;67067;46.850;7.578;2024-03-17T05:54:47;3.30;;;1.77;;
77870;SDS011;67067;46.850;7.578;2024-03-17T05:55:48;5.15;;;1.83;;
77870;SDS011;67067;46.850;7.578;2024-03-17T05:56:49;2.90;;;1.73;;
77870;SDS011;67067;46.850;7.578;2024-03-17T05:57:50;3.35;;;1.95;;
77870;SDS011;67067;46.850;7.578;2024-03-17T05:58:51;6.33;;;2.00;;
77870;SDS011;67067;46.850;7.578;2024-03-17T05:59:52;3.83;;;2.05;;
77870;SDS011;67067;46.850;7.578;2024-03-17T06:00:53;3.33;;;2.17;;
77870;SDS011;67067;46.850;7.578;2024-03-17T06:01:53;2.88;;;1.90;;
77870;SDS011;67067;46.850;7.578;2024-03-17T06:02:54;3.77;;;1.90;;
77870;SDS011;67067;46.850;7.578;2024-03-17T06:03:55;3.27;;;1.70;;
77870;SDS011;67067;46.850;7.578;2024-03-17T06:04:58;2.30;;;2.00;;
77870;SDS011;67067;46.850;7.578;2024-03-17T06:06:05;3.75;;;2.35;;
77870;SDS011;67067;46.850;7.578;2024-03-17T06:07:12;2.83;;;1.75;;
77870;SDS011;67067;46.850;7.578;2024-03-17T06:08:15;4.43;;;2.35;;
77870;SDS011;67067;46.850;7.578;2024-03-17T06:10:19;4.35;;;1.85;;
77870;SDS011;67067;46.850;7.578;2024-03-17T06:11:24;5.22;;;2.00;;
77870;SDS011;67067;46.850;7.578;2024-03-17T06:12:25;4.40;;;2.50;;
77870;SDS011;67067;46.850;7.578;2024-03-17T06:13:26;3.57;;;2.20;;
77870;SDS011;67067;46.850;7.578;2024-03-17T06:14:28;3.45;;;2.22;;
77870;SDS011;67067;46.850;7.578;2024-03-17T06:15:29;3.67;;;2.50;;
77870;SDS011;67067;46.850;7.578;2024-03-17T06:16:31;3.13;;;2.47;;
77870;SDS011;67067;46.850;7.578;2024-03-17T06:17:31;5.13;;;2.40;;
77870;SDS011;67067;46.850;7.578;2024-03-17T06:18:33;3.50;;;2.30;;
77870;SDS011;67067;46.850;7.578;2024-03-17T06:19:33;4.85;;;2.28;;
77870;SDS011;67067;46.850;7.578;2024-03-17T06:20:34;3.30;;;2.13;;
77870;SDS011;67067;46.850;7.578;2024-03-17T06:21:37;4.05;;;2.20;;
77870;SDS011;67067;46.850;7.578;2024-03-17T06:22:41;7.03;;;2.30;;
77870;SDS011;67067;46.850;7.578;2024-03-17T06:23:42;4.67;;;2.37;;
77870;SDS011;67067;46.850;7.578;2024-03-17T06:24:43;4.40;;;2.63;;
77870;SDS011;67067;46.850;7.578;2024-03-17T06:25:46;2.22;;;1.90;;
77870;SDS011;67067;46.850;7.578;2024-03-17T06:26:51;5.70;;;2.13;;
77870;SDS011;67067;46.850;7.578;2024-03-17T06:27:51;5.87;;;2.47;;
77870;SDS011;67067;46.850;7.578;2024-03-17T06:28:52;2.45;;;2.20;;
77870;SDS011;67067;46.850;7.578;2024-03-17T06:29:53;1.98;;;1.80;;
77870;SDS011;67067;46.850;7.578;2024-03-17T06:30:56;5.50;;;2.25;;
77870;SDS011;67067;46.850;7.578;2024-03-17T06:31:59;4.35;;;2.25;;
77870;SDS011;67067;46.850;7.578;2024-03-17T06:33:00;2.85;;;1.92;;
77870;SDS011;67067;46.850;7.578;2024-03-17T06:34:02;4.00;;;2.30;;
77870;SDS011;67067;46.850;7.578;2024-03-17T06:35:02;6.23;;;2.10;;
77870;SDS011;67067;46.850;7.578;2024-03-17T06:36:04;3.67;;;1.83;;
77870;SDS011;67067;46.850;7.578;2024-03-17T06:38:06;5.88;;;1.80;;